Terminal Aerodrome Forecast
Issued by NWS

Home | Current Version | Previous Version | Text Only | Print | Product List | Glossary On
Versions: 1 2 3 4 5 6 7 8 9 10 11 12 13 14 15
000
FTUS42 KGSP 262335
TAFAND
TAF
KAND 262335Z 2700/2724 16005KT P6SM SCT060
     FM270900 16004KT 5SM BR BKN035 PROB30 2709/2711 2SM -SHRA BR
      OVC025
     FM271100 17003KT 3SM BR BKN025
     FM271300 19003KT P6SM BKN025
     FM271600 20004KT P6SM VCSH BKN060=

USA.gov is the U.S. government's official web portal to all federal, state and local government web resources and services.